METAR Data
IDs: Format: Raw Decoded Include TAF

Data at: 0248 UTC 20 Jan 2022

EDGS 200220Z AUTO 29014KT 3300 // SCT002/// BKN004/// OVC010/// 00/00 Q1020